createdAt,value
2023-12-09T00:02:11.436Z,0.96
2023-12-09T00:07:14.484Z,0.96
2023-12-09T00:12:18.817Z,0.96
2023-12-09T00:17:23.254Z,1.00
2023-12-09T00:22:26.351Z,1.03
2023-12-09T00:27:29.528Z,1.02
2023-12-09T00:32:33.921Z,1.09
2023-12-09T00:37:36.883Z,1.05
2023-12-09T00:42:39.903Z,1.06
2023-12-09T00:47:44.405Z,1.10
2023-12-09T00:52:47.346Z,1.10
2023-12-09T00:57:50.256Z,1.11
2023-12-09T01:02:54.742Z,1.09
2023-12-09T01:07:58.012Z,1.09
2023-12-09T01:13:00.921Z,0.99
2023-12-09T01:18:05.328Z,0.98
2023-12-09T01:23:09.740Z,0.96
2023-12-09T01:28:12.695Z,0.93
2023-12-09T01:33:17.109Z,0.94
2023-12-09T01:38:20.099Z,0.96
2023-12-09T01:43:23.321Z,0.95
2023-12-09T01:48:28.184Z,0.98
2023-12-09T01:53:32.149Z,0.92
2023-12-09T01:58:37.088Z,0.88
2023-12-09T02:03:42.491Z,0.89
2023-12-09T02:08:45.456Z,0.93
2023-12-09T02:13:57.642Z,0.87
2023-12-09T02:19:03.193Z,0.85
2023-12-09T02:24:07.926Z,0.87
2023-12-09T02:29:11.401Z,0.86
2023-12-09T02:34:15.955Z,0.75
2023-12-09T02:39:21.681Z,0.80
2023-12-09T02:44:24.944Z,0.83
2023-12-09T02:49:27.992Z,0.84
2023-12-09T02:54:32.341Z,0.89
2023-12-09T02:59:35.301Z,0.94
2023-12-09T03:04:38.289Z,0.84
2023-12-09T03:09:42.650Z,0.85
2023-12-09T03:14:45.593Z,0.90
2023-12-09T03:19:48.591Z,0.85
2023-12-09T03:24:52.906Z,0.83
2023-12-09T03:29:55.834Z,0.77
2023-12-09T03:34:58.811Z,0.69
2023-12-09T03:40:03.655Z,0.71
2023-12-09T03:45:07.788Z,0.64
2023-12-09T03:50:11.383Z,0.61
2023-12-09T03:55:17.826Z,0.63
2023-12-09T04:00:21.495Z,0.59
2023-12-09T04:05:24.634Z,0.61
2023-12-09T04:10:29.081Z,0.61
2023-12-09T04:15:32.124Z,0.63
2023-12-09T04:20:35.550Z,0.60
2023-12-09T04:25:39.818Z,0.60
2023-12-09T04:30:42.728Z,0.62
2023-12-09T04:35:46.176Z,0.70
2023-12-09T04:40:50.527Z,0.74
2023-12-09T04:45:54.400Z,0.73
2023-12-09T04:50:57.350Z,0.74
2023-12-09T04:56:01.624Z,0.72
2023-12-09T05:01:05.020Z,0.71
2023-12-09T05:06:09.728Z,0.76
2023-12-09T05:11:14.070Z,0.71
2023-12-09T05:16:16.978Z,0.76
2023-12-09T05:21:20.001Z,0.78
2023-12-09T05:26:24.725Z,0.72
2023-12-09T05:31:27.708Z,0.76
2023-12-09T05:36:30.763Z,0.83
2023-12-09T05:41:35.133Z,0.84
2023-12-09T05:46:38.262Z,0.87
2023-12-09T05:51:43.251Z,0.92
2023-12-09T05:56:51.053Z,0.86
2023-12-09T06:01:54.095Z,0.81
2023-12-09T06:06:57.043Z,0.72
2023-12-09T06:12:01.444Z,0.67
2023-12-09T06:17:04.713Z,0.73
2023-12-09T06:22:07.632Z,0.73
2023-12-09T06:27:11.999Z,0.66
2023-12-09T06:32:15.395Z,0.67
2023-12-09T06:37:18.967Z,0.72
2023-12-09T06:42:23.282Z,0.70
2023-12-09T06:47:26.546Z,0.65
2023-12-09T06:52:29.682Z,0.62
2023-12-09T06:57:34.249Z,0.71
2023-12-09T07:02:48.480Z,0.68
2023-12-09T07:07:59.462Z,0.68
2023-12-09T07:13:04.484Z,0.67
2023-12-09T07:18:07.518Z,0.61
2023-12-09T07:23:10.646Z,0.61
2023-12-09T07:28:14.980Z,0.64
2023-12-09T07:33:18.466Z,0.82
2023-12-09T07:38:21.560Z,0.79
2023-12-09T07:43:27.228Z,0.79
2023-12-09T07:48:30.569Z,0.89
2023-12-09T07:53:33.533Z,1.02
2023-12-09T07:58:37.786Z,1.03
2023-12-09T08:03:40.857Z,1.13
2023-12-09T08:08:43.818Z,1.07
2023-12-09T08:13:48.387Z,1.16
2023-12-09T08:18:51.454Z,1.38
2023-12-09T08:23:55.482Z,1.49
2023-12-09T08:28:59.820Z,1.49
2023-12-09T08:34:02.800Z,1.60
2023-12-09T08:39:05.908Z,1.56
2023-12-09T08:44:10.178Z,1.59
2023-12-09T08:49:13.236Z,1.43
2023-12-09T08:54:16.826Z,1.47
2023-12-09T08:59:21.115Z,1.57
2023-12-09T09:04:24.089Z,1.34
2023-12-09T09:09:27.052Z,1.53
2023-12-09T09:14:31.361Z,1.27
2023-12-09T09:19:34.335Z,1.51
2023-12-09T09:24:37.874Z,1.69
2023-12-09T09:29:42.255Z,1.80
2023-12-09T09:34:45.520Z,1.72
2023-12-09T09:39:48.789Z,1.85
2023-12-09T09:45:02.382Z,1.84
2023-12-09T09:50:07.036Z,1.94
2023-12-09T09:55:11.042Z,2.05
2023-12-09T10:00:17.765Z,2.16
2023-12-09T10:05:21.637Z,2.33
2023-12-09T10:10:24.991Z,2.22
2023-12-09T10:15:29.381Z,2.39
2023-12-09T10:20:32.736Z,2.65
2023-12-09T10:25:35.971Z,2.67
2023-12-09T10:30:40.469Z,2.56
2023-12-09T10:35:43.594Z,2.75
2023-12-09T10:40:46.514Z,2.81
2023-12-09T10:45:50.914Z,2.97
2023-12-09T10:50:54.136Z,3.03
2023-12-09T10:55:57.964Z,3.12
2023-12-09T11:01:03.514Z,3.00
2023-12-09T11:06:09.110Z,2.87
2023-12-09T11:11:12.752Z,3.17
2023-12-09T11:16:20.410Z,3.19
2023-12-09T11:21:27.189Z,3.34
2023-12-09T11:26:31.758Z,3.40
2023-12-09T11:31:38.852Z,3.48
2023-12-09T11:36:42.619Z,3.45
2023-12-09T11:41:46.641Z,3.65
2023-12-09T11:46:50.981Z,3.67
2023-12-09T11:51:53.965Z,3.67
2023-12-09T11:56:56.935Z,3.69
2023-12-09T12:02:02.021Z,4.07
2023-12-09T12:07:05.269Z,4.35
2023-12-09T12:12:08.814Z,4.84
2023-12-09T12:17:16.515Z,5.57
2023-12-09T12:22:20.669Z,6.17
2023-12-09T12:27:25.843Z,6.88
2023-12-09T12:32:31.419Z,7.52
2023-12-09T12:37:34.794Z,7.31
2023-12-09T12:42:38.133Z,7.18
2023-12-09T12:47:42.596Z,7.12
2023-12-09T12:52:47.011Z,6.97
2023-12-09T12:57:50.153Z,6.99
2023-12-09T13:02:54.506Z,6.37
2023-12-09T13:07:57.544Z,5.38
2023-12-09T13:13:01.018Z,4.71
2023-12-09T13:18:07.874Z,4.86
2023-12-09T13:23:11.098Z,4.48
2023-12-09T13:28:14.194Z,4.06
2023-12-09T20:48:24.197Z,1.40
2023-12-09T20:53:27.203Z,1.32
2023-12-09T20:58:30.930Z,1.47
2023-12-09T21:03:35.390Z,1.41
2023-12-09T21:08:40.432Z,1.41
2023-12-09T21:13:43.573Z,1.43
2023-12-09T21:18:48.607Z,1.38
2023-12-09T21:23:51.614Z,1.43
2023-12-09T21:28:54.609Z,1.57
2023-12-09T21:33:59.035Z,1.61
2023-12-09T21:39:02.081Z,1.49
2023-12-09T21:44:05.134Z,1.48
2023-12-09T21:49:09.542Z,1.50
2023-12-09T21:54:12.599Z,1.52
2023-12-09T21:59:15.629Z,1.52
2023-12-09T22:04:20.115Z,1.53
2023-12-09T22:09:23.650Z,1.53
2023-12-09T22:14:26.661Z,1.53
2023-12-09T22:19:31.117Z,1.50
2023-12-09T22:24:34.167Z,1.44
2023-12-09T22:29:37.253Z,1.40
2023-12-09T22:34:41.811Z,1.45
2023-12-09T22:39:44.948Z,1.44
2023-12-09T22:44:48.027Z,1.49
2023-12-09T22:49:52.570Z,1.49
2023-12-09T22:54:55.596Z,1.53
2023-12-09T22:59:58.855Z,1.46
2023-12-09T23:05:03.243Z,1.47
2023-12-09T23:10:07.190Z,1.52
2023-12-09T23:15:11.721Z,1.54
2023-12-09T23:20:16.251Z,1.55
2023-12-09T23:25:19.209Z,1.58
2023-12-09T23:30:22.435Z,1.54
2023-12-09T23:35:26.822Z,1.53
2023-12-09T23:40:29.788Z,1.55
2023-12-09T23:45:32.884Z,1.53
2023-12-09T23:50:37.302Z,1.44
2023-12-09T23:55:40.809Z,1.42
